KLM1001 EHAM-EGLL
Flight info
| Callsign | KLM1001 |
|---|---|
| Flight time | 0h 42m |
| Altitude | 24000 |
| Route | IDRID L980 LOGAN |
| Aircraft | B738/M-SDFGHIRWXYZ/LB1 |
Departure
| Time | 2026-05-08 06:12 |
|---|---|
| Airport | Amsterdam Airport Schiphol (EHAM) |
Arrival
| Time | 2026-05-08 06:55 |
|---|---|
| Airport | London Heathrow Airport (EGLL) |
| Time | Latitude | Longitude | Altitude | Speed | Heading |
|---|---|---|---|---|---|
| 2026-05-08 06:01 | 52.30712 | 4.76956 | -2 ft | 0 kts | 33° |
| 2026-05-08 06:03 | 52.30712 | 4.76955 | -2 ft | 0 kts | 33° |
| 2026-05-08 06:03 | 52.30699 | 4.76942 | -2 ft | 3 kts | 33° |
| 2026-05-08 06:03 | 52.30682 | 4.76925 | -2 ft | 3 kts | 34° |
| 2026-05-08 06:04 | 52.30673 | 4.76914 | -2 ft | 2 kts | 38° |
| 2026-05-08 06:04 | 52.30660 | 4.76894 | -2 ft | 3 kts | 63° |
| 2026-05-08 06:04 | 52.30656 | 4.76872 | -2 ft | 3 kts | 120° |
| 2026-05-08 06:04 | 52.30669 | 4.76853 | -2 ft | 3 kts | 154° |
| 2026-05-08 06:05 | 52.30688 | 4.76839 | -2 ft | 3 kts | 154° |
| 2026-05-08 06:05 | 52.30698 | 4.76830 | -2 ft | 0 kts | 148° |
| 2026-05-08 06:07 | 52.30683 | 4.76845 | -2 ft | 10 kts | 150° |
| 2026-05-08 06:08 | 52.30611 | 4.76890 | -2 ft | 11 kts | 161° |
| 2026-05-08 06:08 | 52.30532 | 4.76955 | -2 ft | 17 kts | 147° |
| 2026-05-08 06:08 | 52.30425 | 4.76877 | -2 ft | 19 kts | 238° |
| 2026-05-08 06:08 | 52.30355 | 4.76692 | -2 ft | 19 kts | 239° |
| 2026-05-08 06:09 | 52.30288 | 4.76509 | -2 ft | 19 kts | 237° |
| 2026-05-08 06:09 | 52.30204 | 4.76294 | -2 ft | 27 kts | 240° |
| 2026-05-08 06:09 | 52.30109 | 4.76034 | -2 ft | 26 kts | 239° |
| 2026-05-08 06:09 | 52.30019 | 4.75791 | -2 ft | 24 kts | 237° |
| 2026-05-08 06:10 | 52.29931 | 4.75570 | -2 ft | 23 kts | 237° |
| 2026-05-08 06:10 | 52.29847 | 4.75352 | -2 ft | 22 kts | 246° |
| 2026-05-08 06:10 | 52.29886 | 4.75113 | -2 ft | 25 kts | 310° |
| 2026-05-08 06:10 | 52.30011 | 4.74880 | -2 ft | 29 kts | 312° |
| 2026-05-08 06:11 | 52.30151 | 4.74627 | 10 ft | 30 kts | 310° |
| 2026-05-08 06:11 | 52.30289 | 4.74354 | 7 ft | 28 kts | 309° |
| 2026-05-08 06:11 | 52.30431 | 4.74103 | -2 ft | 30 kts | 331° |
| 2026-05-08 06:11 | 52.30604 | 4.73949 | -2 ft | 28 kts | 318° |
| 2026-05-08 06:12 | 52.30770 | 4.73808 | -2 ft | 26 kts | 346° |
| 2026-05-08 06:12 | 52.31148 | 4.73822 | -2 ft | 100 kts | 4° |
| 2026-05-08 06:12 | 52.32118 | 4.73935 | 86 ft | 174 kts | 7° |
| 2026-05-08 06:12 | 52.33375 | 4.74030 | 1026 ft | 189 kts | 355° |
| 2026-05-08 06:13 | 52.34703 | 4.73381 | 1863 ft | 208 kts | 335° |
| 2026-05-08 06:13 | 52.36018 | 4.72265 | 2519 ft | 217 kts | 333° |
| 2026-05-08 06:13 | 52.37379 | 4.70874 | 2831 ft | 246 kts | 320° |
| 2026-05-08 06:13 | 52.38485 | 4.68660 | 3500 ft | 261 kts | 292° |
| 2026-05-08 06:14 | 52.38664 | 4.65775 | 4521 ft | 257 kts | 255° |
| 2026-05-08 06:14 | 52.37995 | 4.63086 | 5560 ft | 256 kts | 241° |
| 2026-05-08 06:14 | 52.37138 | 4.60487 | 6445 ft | 261 kts | 239° |
| 2026-05-08 06:14 | 52.36240 | 4.57886 | 7349 ft | 264 kts | 239° |
| 2026-05-08 06:15 | 52.35327 | 4.55247 | 8188 ft | 268 kts | 239° |
| 2026-05-08 06:15 | 52.34417 | 4.52592 | 8945 ft | 277 kts | 240° |
| 2026-05-08 06:15 | 52.33462 | 4.49782 | 9652 ft | 286 kts | 240° |
| 2026-05-08 06:15 | 52.32484 | 4.46884 | 10502 ft | 290 kts | 240° |
| 2026-05-08 06:16 | 52.31489 | 4.43925 | 10825 ft | 313 kts | 240° |
| 2026-05-08 06:16 | 52.30403 | 4.40679 | 11037 ft | 338 kts | 240° |
| 2026-05-08 06:16 | 52.29239 | 4.37189 | 11377 ft | 356 kts | 241° |
| 2026-05-08 06:16 | 52.28045 | 4.33600 | 12071 ft | 362 kts | 241° |
| 2026-05-08 06:17 | 52.25626 | 4.26343 | 13684 ft | 366 kts | 241° |
| 2026-05-08 06:17 | 52.24416 | 4.22722 | 14424 ft | 369 kts | 241° |
| 2026-05-08 06:17 | 52.23181 | 4.19033 | 15114 ft | 373 kts | 241° |
| 2026-05-08 06:18 | 52.21924 | 4.15288 | 15845 ft | 375 kts | 241° |
| 2026-05-08 06:18 | 52.20664 | 4.11536 | 16531 ft | 378 kts | 241° |
| 2026-05-08 06:18 | 52.19408 | 4.07801 | 17188 ft | 381 kts | 241° |
| 2026-05-08 06:18 | 52.18126 | 4.03997 | 17834 ft | 384 kts | 241° |
| 2026-05-08 06:19 | 52.16835 | 4.00173 | 18477 ft | 387 kts | 241° |
| 2026-05-08 06:19 | 52.15534 | 3.96323 | 19089 ft | 390 kts | 241° |
| 2026-05-08 06:19 | 52.14220 | 3.92441 | 19698 ft | 393 kts | 241° |
| 2026-05-08 06:19 | 52.12894 | 3.88530 | 20309 ft | 395 kts | 241° |
| 2026-05-08 06:20 | 52.11564 | 3.84612 | 20878 ft | 397 kts | 241° |
| 2026-05-08 06:20 | 52.10220 | 3.80658 | 21435 ft | 400 kts | 241° |
| 2026-05-08 06:20 | 52.08868 | 3.76687 | 21952 ft | 403 kts | 241° |
| 2026-05-08 06:20 | 52.07498 | 3.72671 | 22416 ft | 407 kts | 241° |
| 2026-05-08 06:21 | 52.06112 | 3.68612 | 22832 ft | 412 kts | 241° |
| 2026-05-08 06:21 | 52.04759 | 3.64652 | 23242 ft | 416 kts | 240° |
| 2026-05-08 06:21 | 52.03342 | 3.60509 | 23607 ft | 421 kts | 240° |
| 2026-05-08 06:21 | 52.01912 | 3.56336 | 23986 ft | 425 kts | 240° |
| 2026-05-08 06:22 | 52.00460 | 3.52117 | 24086 ft | 432 kts | 240° |
| 2026-05-08 06:22 | 51.98935 | 3.47926 | 24101 ft | 440 kts | 236° |
| 2026-05-08 06:22 | 51.97148 | 3.43853 | 24114 ft | 448 kts | 233° |
| 2026-05-08 06:22 | 51.95247 | 3.39770 | 24111 ft | 455 kts | 233° |
| 2026-05-08 06:23 | 51.93327 | 3.35670 | 24107 ft | 457 kts | 233° |
| 2026-05-08 06:23 | 51.91418 | 3.31532 | 24094 ft | 457 kts | 233° |
| 2026-05-08 06:23 | 51.89556 | 3.27446 | 24096 ft | 456 kts | 233° |
| 2026-05-08 06:23 | 51.87665 | 3.23250 | 24100 ft | 455 kts | 236° |
| 2026-05-08 06:24 | 51.86125 | 3.18868 | 24099 ft | 455 kts | 245° |
| 2026-05-08 06:24 | 51.84985 | 3.14029 | 24104 ft | 455 kts | 252° |
| 2026-05-08 06:24 | 51.84277 | 3.09110 | 24093 ft | 456 kts | 261° |
| 2026-05-08 06:24 | 51.83948 | 3.04008 | 24106 ft | 455 kts | 263° |
| 2026-05-08 06:25 | 51.83659 | 2.98915 | 24095 ft | 455 kts | 263° |
| 2026-05-08 06:25 | 51.83363 | 2.93821 | 24098 ft | 455 kts | 263° |
| 2026-05-08 06:25 | 51.83051 | 2.88742 | 24100 ft | 454 kts | 263° |
| 2026-05-08 06:25 | 51.82726 | 2.83660 | 24101 ft | 454 kts | 263° |
| 2026-05-08 06:26 | 51.82392 | 2.78591 | 24101 ft | 454 kts | 263° |
| 2026-05-08 06:26 | 51.82054 | 2.73506 | 24101 ft | 454 kts | 263° |
| 2026-05-08 06:26 | 51.81713 | 2.68423 | 24101 ft | 454 kts | 262° |
| 2026-05-08 06:26 | 51.81369 | 2.63340 | 24103 ft | 454 kts | 262° |
| 2026-05-08 06:27 | 51.81019 | 2.58262 | 24103 ft | 454 kts | 262° |
| 2026-05-08 06:27 | 51.80667 | 2.53191 | 24101 ft | 454 kts | 262° |
| 2026-05-08 06:27 | 51.80318 | 2.48181 | 24103 ft | 454 kts | 262° |
| 2026-05-08 06:27 | 51.79965 | 2.43127 | 24102 ft | 454 kts | 262° |
| 2026-05-08 06:28 | 51.79608 | 2.38052 | 24102 ft | 454 kts | 262° |
| 2026-05-08 06:28 | 51.79252 | 2.32987 | 24102 ft | 454 kts | 262° |
| 2026-05-08 06:28 | 51.78890 | 2.27892 | 24102 ft | 454 kts | 262° |
| 2026-05-08 06:28 | 51.78529 | 2.22839 | 24101 ft | 454 kts | 262° |
| 2026-05-08 06:29 | 51.78191 | 2.17757 | 24101 ft | 454 kts | 263° |
| 2026-05-08 06:29 | 51.77889 | 2.12672 | 24103 ft | 454 kts | 263° |
| 2026-05-08 06:29 | 51.77601 | 2.07599 | 24101 ft | 454 kts | 263° |
| 2026-05-08 06:29 | 51.77311 | 2.02515 | 24101 ft | 454 kts | 263° |
| 2026-05-08 06:30 | 51.77016 | 1.97422 | 24101 ft | 454 kts | 263° |
| 2026-05-08 06:30 | 51.76716 | 1.92356 | 24101 ft | 454 kts | 263° |
| 2026-05-08 06:30 | 51.76411 | 1.87279 | 24101 ft | 454 kts | 263° |
| 2026-05-08 06:30 | 51.76101 | 1.82200 | 24102 ft | 454 kts | 263° |
| 2026-05-08 06:31 | 51.75793 | 1.77189 | 24086 ft | 440 kts | 263° |
| 2026-05-08 06:31 | 51.75501 | 1.72451 | 24081 ft | 419 kts | 263° |
| 2026-05-08 06:31 | 51.75212 | 1.67829 | 24088 ft | 409 kts | 262° |
| 2026-05-08 06:31 | 51.74924 | 1.63270 | 24098 ft | 409 kts | 262° |
| 2026-05-08 06:32 | 51.74632 | 1.58685 | 23862 ft | 412 kts | 262° |
| 2026-05-08 06:32 | 51.74336 | 1.54112 | 23417 ft | 407 kts | 262° |
| 2026-05-08 06:32 | 51.74042 | 1.49604 | 22909 ft | 402 kts | 262° |
| 2026-05-08 06:32 | 51.73749 | 1.45120 | 22355 ft | 398 kts | 262° |
| 2026-05-08 06:33 | 51.73458 | 1.40702 | 21811 ft | 394 kts | 262° |
| 2026-05-08 06:33 | 51.73266 | 1.37786 | 21449 ft | 392 kts | 262° |
| 2026-05-08 06:33 | 51.72979 | 1.33444 | 20909 ft | 389 kts | 262° |
| 2026-05-08 06:33 | 51.72692 | 1.29114 | 20365 ft | 385 kts | 262° |
| 2026-05-08 06:34 | 51.72408 | 1.24840 | 19833 ft | 382 kts | 262° |
| 2026-05-08 06:34 | 51.72124 | 1.20604 | 19301 ft | 379 kts | 262° |
| 2026-05-08 06:34 | 51.71841 | 1.16388 | 18776 ft | 376 kts | 262° |
| 2026-05-08 06:34 | 51.71559 | 1.12216 | 18247 ft | 373 kts | 262° |
| 2026-05-08 06:35 | 51.71277 | 1.08061 | 17724 ft | 370 kts | 262° |
| 2026-05-08 06:35 | 51.70997 | 1.03949 | 17204 ft | 368 kts | 262° |
| 2026-05-08 06:35 | 51.70717 | 0.99874 | 16689 ft | 366 kts | 262° |
| 2026-05-08 06:35 | 51.70434 | 0.95807 | 16172 ft | 363 kts | 262° |
| 2026-05-08 06:36 | 51.70154 | 0.91767 | 15711 ft | 361 kts | 262° |
| 2026-05-08 06:36 | 51.69874 | 0.87754 | 15262 ft | 360 kts | 262° |
| 2026-05-08 06:36 | 51.69594 | 0.83752 | 14811 ft | 360 kts | 262° |
| 2026-05-08 06:36 | 51.69318 | 0.79792 | 14365 ft | 359 kts | 262° |
| 2026-05-08 06:37 | 51.69036 | 0.75758 | 13909 ft | 358 kts | 262° |
| 2026-05-08 06:37 | 51.68757 | 0.71814 | 13467 ft | 358 kts | 262° |
| 2026-05-08 06:37 | 51.68474 | 0.67835 | 13016 ft | 356 kts | 262° |
| 2026-05-08 06:37 | 51.68192 | 0.63902 | 12568 ft | 352 kts | 262° |
| 2026-05-08 06:38 | 51.67913 | 0.60011 | 12129 ft | 347 kts | 262° |
| 2026-05-08 06:38 | 51.67636 | 0.56162 | 11693 ft | 344 kts | 262° |
| 2026-05-08 06:38 | 51.67360 | 0.52366 | 11267 ft | 340 kts | 262° |
| 2026-05-08 06:38 | 51.67084 | 0.48587 | 10837 ft | 337 kts | 262° |
| 2026-05-08 06:39 | 51.66811 | 0.44866 | 10424 ft | 333 kts | 262° |
| 2026-05-08 06:39 | 51.66537 | 0.41178 | 10019 ft | 329 kts | 262° |
| 2026-05-08 06:39 | 51.66272 | 0.37601 | 10027 ft | 313 kts | 262° |
| 2026-05-08 06:39 | 51.66021 | 0.34235 | 9970 ft | 300 kts | 262° |
| 2026-05-08 06:40 | 51.65778 | 0.30963 | 9889 ft | 289 kts | 262° |
| 2026-05-08 06:40 | 51.65541 | 0.27774 | 9813 ft | 278 kts | 262° |
| 2026-05-08 06:40 | 51.65317 | 0.24766 | 9664 ft | 271 kts | 262° |
| 2026-05-08 06:40 | 51.65091 | 0.21765 | 9411 ft | 268 kts | 262° |
| 2026-05-08 06:41 | 51.64868 | 0.18817 | 9293 ft | 260 kts | 262° |
| 2026-05-08 06:41 | 51.64650 | 0.15963 | 9156 ft | 253 kts | 262° |
| 2026-05-08 06:41 | 51.64462 | 0.13164 | 8979 ft | 249 kts | 264° |
| 2026-05-08 06:41 | 51.64306 | 0.10403 | 8748 ft | 247 kts | 264° |
| 2026-05-08 06:42 | 51.64156 | 0.07655 | 8481 ft | 246 kts | 264° |
| 2026-05-08 06:42 | 51.64007 | 0.04907 | 8220 ft | 245 kts | 264° |
| 2026-05-08 06:42 | 51.63858 | 0.02192 | 7954 ft | 245 kts | 264° |
| 2026-05-08 06:42 | 51.63707 | -0.00546 | 7705 ft | 244 kts | 264° |
| 2026-05-08 06:43 | 51.63556 | -0.03260 | 7459 ft | 242 kts | 263° |
| 2026-05-08 06:43 | 51.63406 | -0.05953 | 7187 ft | 242 kts | 262° |
| 2026-05-08 06:43 | 51.63257 | -0.08619 | 7114 ft | 241 kts | 262° |
| 2026-05-08 06:43 | 51.63106 | -0.11303 | 7097 ft | 240 kts | 262° |
| 2026-05-08 06:44 | 51.62953 | -0.13985 | 7101 ft | 242 kts | 262° |
| 2026-05-08 06:44 | 51.62799 | -0.16703 | 7106 ft | 245 kts | 262° |
| 2026-05-08 06:44 | 51.62642 | -0.19439 | 7094 ft | 245 kts | 262° |
| 2026-05-08 06:44 | 51.62486 | -0.22171 | 7085 ft | 244 kts | 262° |
| 2026-05-08 06:45 | 51.62330 | -0.24882 | 7081 ft | 243 kts | 262° |
| 2026-05-08 06:45 | 51.62173 | -0.27589 | 7076 ft | 242 kts | 262° |
| 2026-05-08 06:45 | 51.62017 | -0.30286 | 7079 ft | 242 kts | 262° |
| 2026-05-08 06:45 | 51.61860 | -0.32982 | 7085 ft | 242 kts | 262° |
| 2026-05-08 06:46 | 51.61702 | -0.35681 | 7085 ft | 242 kts | 262° |
| 2026-05-08 06:46 | 51.61544 | -0.38374 | 7083 ft | 242 kts | 262° |
| 2026-05-08 06:46 | 51.61384 | -0.41081 | 7077 ft | 243 kts | 262° |
| 2026-05-08 06:46 | 51.61226 | -0.43756 | 7077 ft | 243 kts | 262° |
| 2026-05-08 06:47 | 51.61066 | -0.46468 | 7079 ft | 244 kts | 262° |
| 2026-05-08 06:47 | 51.60905 | -0.49183 | 7074 ft | 244 kts | 262° |
| 2026-05-08 06:47 | 51.60743 | -0.51904 | 7057 ft | 244 kts | 262° |
| 2026-05-08 06:47 | 51.60584 | -0.54597 | 6878 ft | 241 kts | 261° |
| 2026-05-08 06:48 | 51.60422 | -0.57274 | 6623 ft | 240 kts | 261° |
| 2026-05-08 06:48 | 51.60277 | -0.59949 | 6368 ft | 240 kts | 265° |
| 2026-05-08 06:48 | 51.60261 | -0.62618 | 6151 ft | 236 kts | 267° |
| 2026-05-08 06:48 | 51.60272 | -0.65229 | 5870 ft | 232 kts | 267° |
| 2026-05-08 06:49 | 51.60283 | -0.67264 | 5642 ft | 228 kts | 267° |
| 2026-05-08 06:49 | 51.60238 | -0.69791 | 5344 ft | 223 kts | 254° |
| 2026-05-08 06:49 | 51.59451 | -0.71791 | 5052 ft | 211 kts | 211° |
| 2026-05-08 06:49 | 51.58080 | -0.72439 | 4812 ft | 207 kts | 182° |
| 2026-05-08 06:50 | 51.56634 | -0.72601 | 4553 ft | 208 kts | 182° |
| 2026-05-08 06:50 | 51.55205 | -0.72767 | 4291 ft | 209 kts | 182° |
| 2026-05-08 06:50 | 51.53727 | -0.72936 | 3997 ft | 210 kts | 181° |
| 2026-05-08 06:50 | 51.52284 | -0.72988 | 3731 ft | 210 kts | 179° |
| 2026-05-08 06:51 | 51.50833 | -0.72986 | 3464 ft | 207 kts | 173° |
| 2026-05-08 06:51 | 51.49567 | -0.72030 | 3198 ft | 204 kts | 132° |
| 2026-05-08 06:51 | 51.48751 | -0.70195 | 2926 ft | 201 kts | 125° |
| 2026-05-08 06:51 | 51.47949 | -0.68361 | 2612 ft | 198 kts | 125° |
| 2026-05-08 06:52 | 51.47179 | -0.66641 | 2512 ft | 187 kts | 125° |
| 2026-05-08 06:52 | 51.46619 | -0.64843 | 2477 ft | 174 kts | 98° |
| 2026-05-08 06:52 | 51.46542 | -0.62961 | 2506 ft | 170 kts | 95° |
| 2026-05-08 06:52 | 51.46433 | -0.61111 | 2166 ft | 168 kts | 94° |
| 2026-05-08 06:53 | 51.46405 | -0.59069 | 1406 ft | 184 kts | 90° |
| 2026-05-08 06:53 | 51.46415 | -0.57091 | 1161 ft | 172 kts | 88° |
| 2026-05-08 06:53 | 51.46426 | -0.55241 | 952 ft | 161 kts | 88° |
| 2026-05-08 06:53 | 51.46437 | -0.53521 | 738 ft | 150 kts | 86° |
| 2026-05-08 06:54 | 51.46446 | -0.51872 | 568 ft | 149 kts | 88° |
| 2026-05-08 06:54 | 51.46456 | -0.50221 | 366 ft | 145 kts | 86° |
| 2026-05-08 06:54 | 51.46463 | -0.48636 | 162 ft | 138 kts | 87° |
| 2026-05-08 06:54 | 51.46477 | -0.47166 | 83 ft | 120 kts | 89° |
| 2026-05-08 06:55 | 51.46477 | -0.46072 | 84 ft | 77 kts | 88° |
| 2026-05-08 06:55 | 51.46477 | -0.45466 | 82 ft | 34 kts | 83° |
| 2026-05-08 06:55 | 51.46527 | -0.45209 | 86 ft | 23 kts | 62° |
| 2026-05-08 06:55 | 51.46656 | -0.45091 | 91 ft | 23 kts | 4° |
| 2026-05-08 06:56 | 51.46737 | -0.45056 | 87 ft | 12 kts | 56° |
| 2026-05-08 06:56 | 51.46748 | -0.44886 | 89 ft | 16 kts | 99° |
| 2026-05-08 06:56 | 51.46749 | -0.44707 | 89 ft | 18 kts | 86° |
| 2026-05-08 06:56 | 51.46756 | -0.44457 | 85 ft | 24 kts | 88° |
| 2026-05-08 06:57 | 51.46760 | -0.44193 | 82 ft | 23 kts | 88° |
| 2026-05-08 06:57 | 51.46864 | -0.44063 | 85 ft | 22 kts | 359° |
| 2026-05-08 06:57 | 51.47015 | -0.44064 | 86 ft | 22 kts | 360° |
| 2026-05-08 06:57 | 51.47163 | -0.44063 | 87 ft | 21 kts | 0° |
| 2026-05-08 06:58 | 51.47307 | -0.44059 | 87 ft | 20 kts | 1° |
| 2026-05-08 06:58 | 51.47393 | -0.44057 | 87 ft | 0 kts | 1° |
| 2026-05-08 06:58 | 51.47410 | -0.44078 | 87 ft | 5 kts | 303° |
| 2026-05-08 06:59 | 51.47384 | -0.44151 | 86 ft | 10 kts | 183° |
| 2026-05-08 06:59 | 51.47328 | -0.44090 | 87 ft | 12 kts | 145° |
| 2026-05-08 06:59 | 51.47226 | -0.44059 | 88 ft | 17 kts | 178° |
| 2026-05-08 06:59 | 51.47087 | -0.44052 | 86 ft | 22 kts | 178° |
| 2026-05-08 07:00 | 51.46914 | -0.44046 | 86 ft | 27 kts | 179° |
| 2026-05-08 07:00 | 51.46770 | -0.43918 | 82 ft | 27 kts | 96° |
| 2026-05-08 07:00 | 51.46672 | -0.43699 | 82 ft | 25 kts | 84° |
| 2026-05-08 07:00 | 51.46582 | -0.43590 | 85 ft | 18 kts | 172° |
| 2026-05-08 07:01 | 51.46436 | -0.43490 | 84 ft | 33 kts | 176° |
| 2026-05-08 07:01 | 51.46277 | -0.43627 | 87 ft | 24 kts | 266° |
| 2026-05-08 07:01 | 51.46273 | -0.43880 | 86 ft | 22 kts | 251° |
| 2026-05-08 07:01 | 51.46217 | -0.44000 | 88 ft | 8 kts | 278° |
| 2026-05-08 07:02 | 51.46237 | -0.44084 | 88 ft | 8 kts | 293° |
| 2026-05-08 07:02 | 51.46242 | -0.44101 | 88 ft | 0 kts | 293° |
| 2026-05-08 07:02 | 51.46243 | -0.44106 | 88 ft | 0 kts | 297° |